Time;durP1;ratioP1;P1;durP2;ratioP2;P2;SDS_P1;SDS_P2;PMS_P1;PMS_P2;Temp;Humidity;BMP_temperature;BMP_pressure;BME280_temperature;BME280_humidity;BME280_pressure;Samples;Min_cycle;Max_cycle;Signal;HPM_P1;HPM_P2
2023/12/31 00:00:08;;;;;;;24.05;14.45;;;;;;;;;;5117256;28;20036;-80
2023/12/31 00:02:35;;;;;;;21.48;14.93;;;;;;;;;;5109592;28;20043;-84
2023/12/31 00:05:01;;;;;;;27.00;16.55;;;;;;;;;;5111836;28;20081;-83
2023/12/31 00:07:29;;;;;;;29.88;15.93;;;;;;;;;;5126347;28;20084;-80
2023/12/31 00:09:55;;;;;;;32.92;16.48;;;;;;;;;;5131017;28;20038;-83
2023/12/31 00:12:21;;;;;;;24.60;15.18;;;;;;;;;;5117924;28;20016;-83
2023/12/31 00:14:47;;;;;;;54.45;17.05;;;;;;;;;;5137205;28;20107;-83
2023/12/31 00:17:14;;;;;;;22.30;15.10;;;;;;;;;;5133773;28;20032;-83
2023/12/31 00:19:40;;;;;;;28.13;15.52;;;;;;;;;;5124457;28;20046;-84
2023/12/31 00:22:07;;;;;;;45.63;15.95;;;;;;;;;;5115634;28;20047;-83
2023/12/31 00:24:33;;;;;;;58.78;16.60;;;;;;;;;;5130760;28;20081;-83
2023/12/31 00:26:59;;;;;;;67.68;21.30;;;;;;;;;;5112269;28;20032;-83
2023/12/31 00:29:25;;;;;;;291.33;26.48;;;;;;;;;;5108742;28;20032;-83
2023/12/31 00:31:51;;;;;;;430.80;31.63;;;;;;;;;;5112654;28;20074;-82
2023/12/31 00:34:17;;;;;;;88.00;24.30;;;;;;;;;;5122939;28;20031;-82
2023/12/31 00:36:44;;;;;;;89.07;17.67;;;;;;;;;;5134609;28;20031;-85
2023/12/31 00:39:10;;;;;;;17.60;10.52;;;;;;;;;;5358492;22;20054;-82
2023/12/31 00:41:36;;;;;;;52.00;18.25;;;;;;;;;;5145781;27;20028;-82
2023/12/31 00:44:02;;;;;;;38.22;16.00;;;;;;;;;;5134653;28;20029;-82
2023/12/31 00:46:28;;;;;;;90.40;22.70;;;;;;;;;;5126599;28;20182;-82
2023/12/31 00:48:54;;;;;;;35.25;18.35;;;;;;;;;;5141911;27;20054;-82
2023/12/31 00:51:21;;;;;;;17.90;13.23;;;;;;;;;;5147029;27;20123;-82
2023/12/31 00:53:47;;;;;;;35.83;18.83;;;;;;;;;;5126901;28;20087;-82
2023/12/31 00:56:13;;;;;;;31.38;16.30;;;;;;;;;;5130130;27;20035;-82
2023/12/31 00:58:39;;;;;;;28.15;16.38;;;;;;;;;;5112296;28;20085;-81
2023/12/31 01:01:04;;;;;;;27.63;16.13;;;;;;;;;;5137511;28;20032;-81
2023/12/31 01:03:30;;;;;;;26.38;16.13;;;;;;;;;;5132636;27;20023;-80
2023/12/31 01:06:03;;;;;;;23.85;15.65;;;;;;;;;;5128552;28;20027;-82
2023/12/31 01:08:30;;;;;;;15.30;11.90;;;;;;;;;;5132391;27;20042;-80
2023/12/31 01:10:56;;;;;;;17.70;10.15;;;;;;;;;;5127897;28;20091;-81
2023/12/31 01:13:22;;;;;;;13.73;11.13;;;;;;;;;;5128569;27;20118;-80
2023/12/31 01:15:48;;;;;;;15.73;11.05;;;;;;;;;;5127452;27;20035;-79
2023/12/31 01:18:14;;;;;;;14.93;10.65;;;;;;;;;;5127663;27;20059;-80
2023/12/31 01:20:40;;;;;;;6.93;6.18;;;;;;;;;;5130548;28;20059;-81
2023/12/31 01:23:06;;;;;;;5.75;4.95;;;;;;;;;;5108648;28;20052;-78
2023/12/31 01:25:32;;;;;;;10.27;8.18;;;;;;;;;;5131409;27;20039;-80
2023/12/31 01:27:59;;;;;;;17.02;11.52;;;;;;;;;;5129220;27;20036;-80
2023/12/31 01:30:24;;;;;;;9.52;7.47;;;;;;;;;;5125598;27;20058;-81
2023/12/31 01:32:50;;;;;;;21.52;11.80;;;;;;;;;;5134071;27;20035;-81
2023/12/31 01:35:18;;;;;;;14.73;10.88;;;;;;;;;;5134524;27;20020;-81
2023/12/31 01:37:45;;;;;;;12.95;9.52;;;;;;;;;;5131454;27;20449;-82
2023/12/31 01:40:11;;;;;;;8.32;7.03;;;;;;;;;;5144587;27;20096;-80
2023/12/31 01:42:37;;;;;;;8.75;7.43;;;;;;;;;;5140158;27;20036;-81
2023/12/31 01:45:04;;;;;;;8.38;6.85;;;;;;;;;;5123221;28;20049;-81
2023/12/31 01:47:32;;;;;;;9.93;8.00;;;;;;;;;;5136480;27;20061;-80
2023/12/31 01:49:58;;;;;;;8.93;7.70;;;;;;;;;;5128658;27;20031;-81
2023/12/31 01:52:24;;;;;;;9.27;7.65;;;;;;;;;;5141908;27;20024;-82
2023/12/31 01:54:54;;;;;;;9.57;7.60;;;;;;;;;;5142843;27;20072;-81
2023/12/31 01:57:21;;;;;;;8.93;7.55;;;;;;;;;;5119429;27;20040;-81
2023/12/31 01:59:48;;;;;;;11.90;9.32;;;;;;;;;;5139871;27;20141;-81
2023/12/31 02:02:14;;;;;;;11.73;8.60;;;;;;;;;;5139036;27;20038;-82
2023/12/31 02:04:40;;;;;;;8.75;7.05;;;;;;;;;;5137119;27;20027;-80
2023/12/31 02:07:06;;;;;;;4.55;4.13;;;;;;;;;;5142623;27;20047;-80
2023/12/31 02:09:32;;;;;;;10.00;6.20;;;;;;;;;;5135836;27;20050;-83
2023/12/31 02:11:58;;;;;;;9.38;7.53;;;;;;;;;;5147904;27;20019;-81
2023/12/31 02:14:24;;;;;;;10.77;7.50;;;;;;;;;;5132210;27;20530;-80
2023/12/31 02:16:50;;;;;;;11.55;8.75;;;;;;;;;;5139898;27;20030;-82
2023/12/31 02:19:15;;;;;;;11.55;8.60;;;;;;;;;;5148428;27;20054;-82
2023/12/31 02:21:41;;;;;;;10.07;8.15;;;;;;;;;;5149296;27;20024;-83
2023/12/31 02:24:08;;;;;;;11.70;8.75;;;;;;;;;;5149947;27;20027;-82
2023/12/31 02:26:34;;;;;;;10.18;8.02;;;;;;;;;;5139505;27;20019;-83
2023/12/31 02:29:00;;;;;;;13.70;9.32;;;;;;;;;;5137094;28;20073;-84
2023/12/31 02:31:25;;;;;;;5.90;5.32;;;;;;;;;;5147361;27;20083;-82
2023/12/31 02:33:53;;;;;;;6.80;5.40;;;;;;;;;;5141139;27;20082;-83
2023/12/31 02:36:19;;;;;;;8.65;7.45;;;;;;;;;;5156668;27;20252;-82
2023/12/31 02:38:45;;;;;;;4.80;4.40;;;;;;;;;;5135587;27;20036;-82
2023/12/31 02:41:11;;;;;;;11.95;8.02;;;;;;;;;;5135703;27;20030;-81
2023/12/31 02:43:37;;;;;;;12.55;8.18;;;;;;;;;;5141941;27;20075;-82
2023/12/31 02:46:04;;;;;;;14.48;7.78;;;;;;;;;;5151312;27;20027;-83
2023/12/31 02:48:29;;;;;;;15.68;8.98;;;;;;;;;;5135978;27;20043;-82
2023/12/31 02:50:56;;;;;;;11.10;8.10;;;;;;;;;;5118731;27;20047;-79
2023/12/31 02:53:22;;;;;;;12.82;9.00;;;;;;;;;;5124748;27;20038;-80
2023/12/31 02:55:47;;;;;;;9.38;7.20;;;;;;;;;;5133993;27;20707;-80
2023/12/31 02:58:13;;;;;;;10.13;5.15;;;;;;;;;;5127240;27;20047;-81
2023/12/31 03:00:41;;;;;;;8.40;6.82;;;;;;;;;;5147344;27;20039;-81
2023/12/31 03:03:07;;;;;;;17.30;10.20;;;;;;;;;;5146727;27;20012;-81
2023/12/31 03:05:33;;;;;;;15.55;10.15;;;;;;;;;;5154190;27;20020;-80
2023/12/31 03:07:59;;;;;;;11.18;6.85;;;;;;;;;;5143978;27;20617;-80
2023/12/31 03:10:26;;;;;;;17.50;10.02;;;;;;;;;;5128874;27;20031;-81
2023/12/31 03:12:52;;;;;;;16.05;8.88;;;;;;;;;;5125568;27;20506;-81
2023/12/31 03:15:19;;;;;;;15.18;9.52;;;;;;;;;;5147634;27;20049;-83
2023/12/31 03:17:44;;;;;;;17.33;9.95;;;;;;;;;;5134619;27;20049;-81
2023/12/31 03:20:11;;;;;;;18.27;9.35;;;;;;;;;;5136963;27;20409;-81
2023/12/31 03:22:37;;;;;;;15.05;8.63;;;;;;;;;;5110330;27;20019;-80
2023/12/31 03:25:03;;;;;;;15.70;9.02;;;;;;;;;;5131029;27;20031;-82
2023/12/31 03:27:29;;;;;;;16.60;9.77;;;;;;;;;;5140155;27;20505;-81
2023/12/31 03:29:55;;;;;;;15.93;9.13;;;;;;;;;;5135896;27;20027;-81
2023/12/31 03:32:20;;;;;;;10.25;7.07;;;;;;;;;;5126430;27;20439;-82
2023/12/31 03:34:46;;;;;;;16.92;9.55;;;;;;;;;;5135595;27;20077;-82
2023/12/31 03:37:12;;;;;;;10.80;7.60;;;;;;;;;;5134225;27;20137;-82
2023/12/31 03:39:38;;;;;;;15.60;8.75;;;;;;;;;;5132396;27;20075;-80
2023/12/31 03:42:04;;;;;;;13.00;8.18;;;;;;;;;;5123127;27;20018;-82
2023/12/31 03:44:31;;;;;;;8.02;6.28;;;;;;;;;;5136521;27;20011;-82
2023/12/31 03:46:57;;;;;;;3.67;3.42;;;;;;;;;;5153657;27;20012;-82
2023/12/31 03:49:23;;;;;;;16.40;9.63;;;;;;;;;;5111607;27;20061;-79
2023/12/31 03:51:49;;;;;;;13.85;8.27;;;;;;;;;;5121232;27;20480;-79
2023/12/31 03:54:15;;;;;;;17.80;9.60;;;;;;;;;;5123444;27;20031;-81
2023/12/31 03:56:41;;;;;;;5.07;4.57;;;;;;;;;;5118898;27;20047;-81
2023/12/31 03:59:07;;;;;;;15.63;8.65;;;;;;;;;;5124450;27;20043;-81
2023/12/31 04:01:33;;;;;;;10.65;6.97;;;;;;;;;;5133847;27;20506;-81
2023/12/31 04:04:00;;;;;;;15.50;8.38;;;;;;;;;;5147315;27;20091;-82
2023/12/31 04:06:25;;;;;;;13.30;8.93;;;;;;;;;;5144217;27;20076;-81
2023/12/31 04:08:51;;;;;;;11.02;8.18;;;;;;;;;;5118138;27;20026;-80
2023/12/31 04:11:17;;;;;;;11.05;8.23;;;;;;;;;;5133312;27;20620;-82
2023/12/31 04:13:43;;;;;;;9.93;7.30;;;;;;;;;;5141119;27;20034;-81
2023/12/31 04:16:09;;;;;;;10.13;6.63;;;;;;;;;;5143205;27;20036;-81
2023/12/31 04:18:35;;;;;;;7.35;6.55;;;;;;;;;;5152537;27;20015;-83
2023/12/31 04:21:02;;;;;;;6.88;6.05;;;;;;;;;;5134263;27;20061;-82
2023/12/31 04:23:28;;;;;;;6.05;5.45;;;;;;;;;;5145084;27;20035;-83
2023/12/31 04:25:54;;;;;;;6.97;6.10;;;;;;;;;;5145930;27;20043;-82
2023/12/31 04:28:19;;;;;;;4.18;3.88;;;;;;;;;;5136555;27;20038;-81
2023/12/31 04:30:45;;;;;;;6.82;6.18;;;;;;;;;;5124239;27;20050;-82
2023/12/31 04:33:12;;;;;;;4.78;4.35;;;;;;;;;;5131816;27;20027;-80
2023/12/31 04:35:38;;;;;;;7.00;6.20;;;;;;;;;;5125155;27;20517;-81
2023/12/31 04:38:04;;;;;;;6.82;6.13;;;;;;;;;;5122868;27;20054;-81
2023/12/31 04:40:30;;;;;;;5.40;5.00;;;;;;;;;;5129714;27;20601;-81
2023/12/31 04:42:56;;;;;;;6.18;5.68;;;;;;;;;;5109186;28;20035;-82
2023/12/31 04:45:21;;;;;;;6.60;5.47;;;;;;;;;;5121011;27;20031;-80
2023/12/31 04:47:47;;;;;;;4.75;4.30;;;;;;;;;;5136316;27;20490;-83
2023/12/31 04:50:13;;;;;;;6.55;5.95;;;;;;;;;;5125482;27;20055;-81
2023/12/31 04:52:39;;;;;;;7.53;6.72;;;;;;;;;;5126871;27;20031;-81
2023/12/31 04:55:05;;;;;;;6.40;5.82;;;;;;;;;;5124162;28;20031;-80
2023/12/31 04:57:31;;;;;;;4.88;4.43;;;;;;;;;;5126940;27;20054;-82
2023/12/31 04:59:57;;;;;;;6.10;5.50;;;;;;;;;;5143239;27;20043;-82
2023/12/31 05:02:24;;;;;;;5.25;4.85;;;;;;;;;;5143339;27;20042;-83
2023/12/31 05:04:50;;;;;;;7.72;6.70;;;;;;;;;;5145617;27;20041;-83
2023/12/31 05:07:15;;;;;;;6.68;6.00;;;;;;;;;;5138043;27;20494;-82
2023/12/31 05:09:41;;;;;;;5.90;5.45;;;;;;;;;;5137188;27;20046;-80
2023/12/31 05:12:07;;;;;;;7.63;5.15;;;;;;;;;;5115187;28;20031;-81
2023/12/31 05:14:33;;;;;;;6.68;6.07;;;;;;;;;;5135475;27;20042;-83
2023/12/31 05:16:59;;;;;;;5.55;4.45;;;;;;;;;;5139423;27;20053;-82
2023/12/31 05:19:25;;;;;;;5.55;4.65;;;;;;;;;;5157801;27;20110;-83
2023/12/31 05:21:50;;;;;;;6.32;5.82;;;;;;;;;;5138622;27;20050;-82
2023/12/31 05:24:16;;;;;;;7.00;6.40;;;;;;;;;;5157113;27;20031;-83
2023/12/31 05:26:42;;;;;;;7.28;5.80;;;;;;;;;;5163824;27;20509;-82
2023/12/31 05:29:08;;;;;;;9.48;6.68;;;;;;;;;;5164543;27;20045;-82
2023/12/31 05:31:36;;;;;;;6.97;6.28;;;;;;;;;;5165564;27;20042;-83
2023/12/31 05:34:03;;;;;;;3.45;3.25;;;;;;;;;;5167699;27;20529;-82
2023/12/31 05:36:29;;;;;;;5.28;4.85;;;;;;;;;;5160037;27;20113;-80
2023/12/31 05:38:55;;;;;;;2.88;2.67;;;;;;;;;;5152398;27;20566;-82
2023/12/31 05:41:20;;;;;;;5.53;5.03;;;;;;;;;;5123242;27;20564;-81
2023/12/31 05:43:46;;;;;;;5.22;4.72;;;;;;;;;;5143055;27;20047;-82
2023/12/31 05:46:12;;;;;;;6.00;5.50;;;;;;;;;;5149796;27;20027;-81
2023/12/31 05:48:39;;;;;;;4.90;4.50;;;;;;;;;;5140072;27;20060;-79
2023/12/31 05:51:05;;;;;;;6.47;4.65;;;;;;;;;;5142809;27;20015;-83
2023/12/31 05:53:31;;;;;;;5.55;4.68;;;;;;;;;;5145452;27;20019;-80
2023/12/31 05:55:57;;;;;;;4.80;4.40;;;;;;;;;;5145599;27;20028;-80
2023/12/31 05:58:23;;;;;;;5.30;4.82;;;;;;;;;;5141105;27;20050;-79
2023/12/31 06:00:49;;;;;;;2.67;2.47;;;;;;;;;;5136790;27;20039;-80
2023/12/31 06:03:15;;;;;;;4.00;3.53;;;;;;;;;;5129255;27;20062;-79
2023/12/31 06:05:41;;;;;;;4.45;3.97;;;;;;;;;;5122658;27;20058;-80
2023/12/31 06:08:07;;;;;;;4.95;4.55;;;;;;;;;;5125191;27;20031;-78
2023/12/31 06:10:33;;;;;;;4.57;3.55;;;;;;;;;;5127532;27;20035;-79
2023/12/31 06:12:58;;;;;;;3.60;3.40;;;;;;;;;;5125113;27;20046;-79
2023/12/31 06:15:24;;;;;;;3.83;3.53;;;;;;;;;;5116734;27;20042;-79
2023/12/31 06:17:51;;;;;;;4.63;4.10;;;;;;;;;;5123417;27;20473;-77
2023/12/31 06:20:17;;;;;;;5.82;4.47;;;;;;;;;;5120647;27;20078;-79
2023/12/31 06:22:43;;;;;;;5.63;3.80;;;;;;;;;;5122072;27;20526;-77
2023/12/31 06:25:09;;;;;;;5.05;4.65;;;;;;;;;;5129050;27;20116;-78
2023/12/31 06:27:36;;;;;;;4.18;3.88;;;;;;;;;;5124243;27;20124;-80
2023/12/31 06:30:02;;;;;;;4.40;4.10;;;;;;;;;;5123465;27;20171;-79
2023/12/31 06:32:30;;;;;;;5.20;4.80;;;;;;;;;;5120339;27;20127;-79
2023/12/31 06:34:56;;;;;;;3.92;3.63;;;;;;;;;;5123597;27;20122;-80
2023/12/31 06:37:22;;;;;;;3.22;3.08;;;;;;;;;;5126434;27;20118;-81
2023/12/31 06:39:49;;;;;;;3.97;3.65;;;;;;;;;;5122996;27;20078;-81
2023/12/31 06:42:15;;;;;;;3.17;2.97;;;;;;;;;;5117928;27;20073;-79
2023/12/31 06:44:41;;;;;;;4.50;4.20;;;;;;;;;;5094979;28;20532;-78
2023/12/31 06:47:07;;;;;;;2.42;2.33;;;;;;;;;;5117951;28;20123;-81
2023/12/31 06:49:34;;;;;;;4.07;3.80;;;;;;;;;;5119270;27;20042;-80
2023/12/31 06:52:00;;;;;;;4.38;4.18;;;;;;;;;;5131104;27;20031;-79
2023/12/31 06:54:27;;;;;;;2.65;2.55;;;;;;;;;;5119787;27;20159;-80
2023/12/31 06:56:53;;;;;;;1.95;1.90;;;;;;;;;;5113948;27;20035;-80
2023/12/31 06:59:25;;;;;;;2.88;2.67;;;;;;;;;;5129029;27;20035;-81
2023/12/31 07:01:57;;;;;;;3.92;2.13;;;;;;;;;;5102387;27;20129;-79
2023/12/31 07:04:26;;;;;;;3.30;3.00;;;;;;;;;;5105061;27;20034;-81
2023/12/31 07:06:52;;;;;;;1.52;1.52;;;;;;;;;;5110186;27;20055;-80
2023/12/31 07:09:17;;;;;;;3.55;2.97;;;;;;;;;;5128272;27;20045;-80
2023/12/31 07:11:43;;;;;;;2.63;2.53;;;;;;;;;;5132407;27;20143;-76
2023/12/31 07:14:09;;;;;;;2.00;1.90;;;;;;;;;;5131168;27;20603;-75
2023/12/31 07:16:35;;;;;;;1.60;1.60;;;;;;;;;;5143877;27;20053;-74
2023/12/31 07:19:00;;;;;;;2.35;2.15;;;;;;;;;;5122414;27;20039;-75
2023/12/31 07:21:27;;;;;;;1.92;1.83;;;;;;;;;;5130676;27;20062;-75
2023/12/31 07:23:53;;;;;;;1.67;1.67;;;;;;;;;;5131092;27;20027;-75
2023/12/31 07:26:25;;;;;;;2.88;2.67;;;;;;;;;;5112402;27;20098;-76
2023/12/31 07:28:51;;;;;;;1.75;1.75;;;;;;;;;;5112733;27;20039;-75
2023/12/31 07:31:17;;;;;;;2.72;2.60;;;;;;;;;;5131032;27;20121;-76
2023/12/31 07:33:43;;;;;;;2.63;2.50;;;;;;;;;;5129170;27;20023;-75
2023/12/31 07:36:09;;;;;;;1.92;1.92;;;;;;;;;;5129733;27;20520;-75
2023/12/31 07:38:35;;;;;;;1.88;1.77;;;;;;;;;;5127819;27;20086;-79
2023/12/31 07:41:01;;;;;;;1.65;1.63;;;;;;;;;;5121759;27;20051;-77
2023/12/31 07:43:26;;;;;;;1.98;1.88;;;;;;;;;;5119955;27;20034;-78
2023/12/31 07:45:52;;;;;;;2.92;2.72;;;;;;;;;;5113595;27;20082;-73
2023/12/31 07:48:19;;;;;;;2.10;2.00;;;;;;;;;;5094815;27;20696;-74
2023/12/31 07:50:45;;;;;;;1.73;1.63;;;;;;;;;;5129124;27;20027;-76
2023/12/31 07:53:11;;;;;;;2.47;2.28;;;;;;;;;;5124412;27;20038;-73
2023/12/31 07:55:37;;;;;;;2.00;1.90;;;;;;;;;;5126886;27;20445;-76
2023/12/31 07:58:03;;;;;;;1.42;1.40;;;;;;;;;;5127726;27;20033;-74
2023/12/31 08:00:28;;;;;;;2.55;2.42;;;;;;;;;;5119492;27;20073;-74
2023/12/31 08:02:54;;;;;;;1.15;1.15;;;;;;;;;;5088343;27;20402;-74
2023/12/31 08:05:20;;;;;;;1.52;1.52;;;;;;;;;;5123875;27;20570;-72
2023/12/31 08:07:46;;;;;;;2.85;1.98;;;;;;;;;;5128470;27;20039;-74
2023/12/31 08:10:12;;;;;;;2.05;1.98;;;;;;;;;;5129934;27;20113;-74
2023/12/31 08:12:38;;;;;;;1.60;1.50;;;;;;;;;;5128470;27;20050;-74
2023/12/31 08:15:04;;;;;;;2.13;2.03;;;;;;;;;;5127976;27;20027;-74
2023/12/31 08:17:30;;;;;;;1.40;1.40;;;;;;;;;;5128016;27;20042;-74
2023/12/31 08:19:56;;;;;;;1.05;1.05;;;;;;;;;;5128180;27;20039;-74
2023/12/31 08:22:22;;;;;;;1.58;1.55;;;;;;;;;;5128830;27;20046;-74
2023/12/31 08:24:48;;;;;;;1.27;1.27;;;;;;;;;;5129079;27;20143;-75
2023/12/31 08:27:14;;;;;;;1.65;1.65;;;;;;;;;;5124150;27;20508;-74
2023/12/31 08:29:40;;;;;;;1.15;1.15;;;;;;;;;;5120485;27;20038;-75
2023/12/31 08:32:06;;;;;;;1.25;1.25;;;;;;;;;;5118374;27;20103;-75
2023/12/31 08:34:31;;;;;;;1.15;1.15;;;;;;;;;;5119654;27;20100;-75
2023/12/31 08:36:57;;;;;;;1.58;1.50;;;;;;;;;;5120097;27;20043;-75
2023/12/31 08:39:23;;;;;;;2.58;2.47;;;;;;;;;;5125657;27;20092;-74
2023/12/31 08:41:49;;;;;;;1.17;1.17;;;;;;;;;;5124698;27;20031;-76
2023/12/31 08:44:15;;;;;;;1.70;1.65;;;;;;;;;;5141752;27;20031;-76
2023/12/31 08:46:41;;;;;;;1.70;1.60;;;;;;;;;;5137927;27;20049;-77
2023/12/31 08:49:07;;;;;;;1.60;1.60;;;;;;;;;;5126775;28;20042;-76
2023/12/31 08:51:32;;;;;;;1.33;1.33;;;;;;;;;;5131911;28;20615;-76
2023/12/31 08:53:58;;;;;;;1.13;1.13;;;;;;;;;;5132195;27;20034;-76
2023/12/31 08:56:24;;;;;;;1.38;1.38;;;;;;;;;;5125287;27;20039;-75
2023/12/31 08:58:52;;;;;;;1.23;1.23;;;;;;;;;;5121402;27;20076;-74
2023/12/31 09:01:19;;;;;;;1.60;1.60;;;;;;;;;;5120736;28;20031;-78
2023/12/31 09:03:44;;;;;;;1.08;1.00;;;;;;;;;;5122352;28;20023;-77
2023/12/31 09:06:10;;;;;;;2.15;1.30;;;;;;;;;;5121509;28;20036;-75
2023/12/31 09:08:36;;;;;;;1.30;1.30;;;;;;;;;;5118248;27;20088;-75
2023/12/31 09:11:02;;;;;;;1.35;1.35;;;;;;;;;;5118742;28;20040;-76
2023/12/31 09:13:28;;;;;;;1.27;1.27;;;;;;;;;;5117487;28;20058;-74
2023/12/31 09:15:55;;;;;;;1.58;1.50;;;;;;;;;;5118495;28;20542;-75
2023/12/31 09:18:23;;;;;;;1.50;1.40;;;;;;;;;;5118255;28;20050;-75
2023/12/31 09:20:49;;;;;;;1.35;1.35;;;;;;;;;;5121155;27;20058;-76
2023/12/31 09:23:16;;;;;;;1.30;1.30;;;;;;;;;;5120548;27;20736;-76
2023/12/31 09:25:42;;;;;;;1.10;1.10;;;;;;;;;;5124716;28;20591;-76
2023/12/31 09:28:08;;;;;;;1.15;1.15;;;;;;;;;;5120911;27;20035;-76
2023/12/31 09:30:34;;;;;;;1.63;1.52;;;;;;;;;;5118386;28;20107;-75
2023/12/31 09:33:00;;;;;;;1.73;1.63;;;;;;;;;;5116857;28;20095;-76
2023/12/31 09:35:26;;;;;;;1.05;1.05;;;;;;;;;;5122427;27;20058;-77
2023/12/31 09:37:51;;;;;;;1.45;1.42;;;;;;;;;;5110885;27;20090;-77
2023/12/31 09:40:20;;;;;;;1.23;1.13;;;;;;;;;;5115363;28;20060;-77
2023/12/31 09:42:49;;;;;;;1.15;1.15;;;;;;;;;;5111471;28;20019;-77
2023/12/31 09:45:24;;;;;;;1.30;1.30;;;;;;;;;;5117484;27;20028;-76
2023/12/31 09:47:51;;;;;;;1.23;1.23;;;;;;;;;;5125457;27;20027;-77
2023/12/31 09:50:20;;;;;;;1.20;1.20;;;;;;;;;;5125820;27;20026;-77
2023/12/31 09:52:47;;;;;;;1.85;1.75;;;;;;;;;;5121464;27;20521;-79
2023/12/31 09:55:14;;;;;;;1.52;1.40;;;;;;;;;;5110170;27;20509;-78
2023/12/31 09:57:40;;;;;;;1.70;1.60;;;;;;;;;;5121381;27;20036;-78
2023/12/31 10:00:06;;;;;;;0.90;0.90;;;;;;;;;;5122231;27;20032;-78
2023/12/31 10:02:38;;;;;;;1.25;1.25;;;;;;;;;;5124191;27;20481;-77
2023/12/31 10:05:04;;;;;;;1.23;1.23;;;;;;;;;;5126535;27;20163;-77
2023/12/31 10:07:30;;;;;;;1.27;1.27;;;;;;;;;;5130884;27;20501;-76
2023/12/31 10:09:56;;;;;;;1.10;1.10;;;;;;;;;;5132097;27;20069;-76
2023/12/31 10:12:22;;;;;;;1.08;1.08;;;;;;;;;;5129201;27;20031;-77
2023/12/31 10:14:48;;;;;;;2.00;1.90;;;;;;;;;;5128233;27;20019;-77
2023/12/31 10:17:14;;;;;;;2.05;1.45;;;;;;;;;;5124217;27;20052;-77
2023/12/31 10:19:40;;;;;;;1.10;1.10;;;;;;;;;;5123139;27;20077;-78
2023/12/31 10:22:07;;;;;;;1.10;1.10;;;;;;;;;;5133200;27;20111;-78
2023/12/31 10:24:33;;;;;;;1.65;1.63;;;;;;;;;;5132008;27;20059;-79
2023/12/31 10:27:04;;;;;;;1.40;1.40;;;;;;;;;;5129102;27;20529;-77
2023/12/31 10:29:30;;;;;;;;;;;;;;;;;;5131125;27;20458;-76
2023/12/31 10:31:56;;;;;;;1.20;1.20;;;;;;;;;;5130623;27;19919;-77
2023/12/31 10:34:22;;;;;;;1.60;1.50;;;;;;;;;;5125527;27;20077;-79
2023/12/31 10:36:48;;;;;;;1.48;1.33;;;;;;;;;;5119217;27;20035;-79
2023/12/31 10:39:29;;;;;;;1.67;1.58;;;;;;;;;;5125885;27;20422;-77
2023/12/31 10:42:13;;;;;;;1.13;1.13;;;;;;;;;;5122782;27;20031;-78
2023/12/31 10:44:39;;;;;;;1.48;1.38;;;;;;;;;;5129291;27;20118;-78
2023/12/31 10:47:09;;;;;;;1.33;1.33;;;;;;;;;;5130308;27;20197;-79
2023/12/31 10:49:36;;;;;;;1.30;1.30;;;;;;;;;;5129075;27;20038;-78
2023/12/31 10:52:05;;;;;;;1.70;1.60;;;;;;;;;;5128047;27;20035;-77
2023/12/31 10:54:47;;;;;;;1.50;1.40;;;;;;;;;;5110030;27;20045;-78
2023/12/31 10:57:13;;;;;;;1.85;1.80;;;;;;;;;;5120413;27;20043;-78
2023/12/31 10:59:42;;;;;;;1.30;1.30;;;;;;;;;;5121037;27;20100;-78
2023/12/31 11:02:15;;;;;;;1.50;1.45;;;;;;;;;;5130031;27;20039;-78
2023/12/31 11:04:45;;;;;;;1.58;1.48;;;;;;;;;;5130392;27;20027;-78
2023/12/31 11:07:13;;;;;;;1.55;1.48;;;;;;;;;;5129041;27;20030;-78
2023/12/31 11:09:39;;;;;;;1.40;1.40;;;;;;;;;;5095055;27;20027;-79
2023/12/31 11:12:15;;;;;;;1.48;1.48;;;;;;;;;;5130225;27;20035;-79
2023/12/31 11:14:43;;;;;;;2.85;1.42;;;;;;;;;;5130602;27;20034;-79
2023/12/31 11:17:15;;;;;;;1.05;1.05;;;;;;;;;;5131497;27;20103;-79
2023/12/31 11:19:41;;;;;;;1.30;1.20;;;;;;;;;;5131536;27;20031;-78
2023/12/31 11:22:25;;;;;;;1.20;1.20;;;;;;;;;;5131748;27;20399;-78
2023/12/31 11:24:53;;;;;;;1.20;1.20;;;;;;;;;;5131657;27;20035;-78
2023/12/31 11:27:19;;;;;;;2.25;2.05;;;;;;;;;;5130241;27;20519;-78
2023/12/31 11:29:52;;;;;;;2.05;1.95;;;;;;;;;;5132087;27;20060;-79
2023/12/31 11:32:22;;;;;;;1.35;1.35;;;;;;;;;;5132622;27;20607;-79
2023/12/31 11:34:53;;;;;;;2.20;2.10;;;;;;;;;;5134782;27;20038;-78
2023/12/31 11:37:23;;;;;;;1.88;1.77;;;;;;;;;;5143372;27;20011;-79
2023/12/31 11:39:52;;;;;;;2.08;1.98;;;;;;;;;;5148023;27;20062;-79
2023/12/31 11:42:19;;;;;;;2.00;1.90;;;;;;;;;;5144947;27;20077;-79
2023/12/31 11:44:45;;;;;;;2.10;2.00;;;;;;;;;;5144572;27;20141;-80
2023/12/31 11:47:15;;;;;;;2.00;1.90;;;;;;;;;;5138044;27;20092;-80
2023/12/31 11:49:46;;;;;;;2.08;1.98;;;;;;;;;;5132317;27;20150;-78
2023/12/31 11:52:11;;;;;;;2.10;2.00;;;;;;;;;;5130136;27;20031;-77
2023/12/31 11:54:38;;;;;;;1.90;1.80;;;;;;;;;;5131028;27;20571;-79
2023/12/31 11:57:04;;;;;;;1.67;1.58;;;;;;;;;;5131250;27;20041;-78
2023/12/31 11:59:36;;;;;;;1.90;1.80;;;;;;;;;;5112651;27;20468;-77
2023/12/31 12:02:02;;;;;;;1.80;1.75;;;;;;;;;;5129273;27;20031;-77
2023/12/31 12:04:28;;;;;;;2.00;1.90;;;;;;;;;;5132304;27;20084;-76
2023/12/31 12:06:54;;;;;;;1.73;1.45;;;;;;;;;;5131073;27;20521;-76
2023/12/31 12:09:21;;;;;;;1.55;1.55;;;;;;;;;;5131193;27;20035;-77
2023/12/31 12:11:48;;;;;;;2.67;1.30;;;;;;;;;;5140298;27;20042;-77
2023/12/31 12:14:14;;;;;;;2.00;1.90;;;;;;;;;;5138126;27;20451;-77
2023/12/31 12:16:42;;;;;;;1.42;1.42;;;;;;;;;;5134573;27;20090;-80
2023/12/31 12:19:08;;;;;;;1.77;1.67;;;;;;;;;;5138670;27;20062;-79
2023/12/31 12:21:35;;;;;;;1.92;1.70;;;;;;;;;;5143063;27;20027;-79
2023/12/31 12:24:03;;;;;;;1.65;1.55;;;;;;;;;;5142602;27;20055;-78
2023/12/31 12:26:29;;;;;;;1.77;1.67;;;;;;;;;;5140740;27;20035;-78
2023/12/31 12:28:56;;;;;;;2.53;2.10;;;;;;;;;;5142575;27;20510;-79
2023/12/31 12:31:22;;;;;;;4.50;3.63;;;;;;;;;;5132094;27;20353;-80
2023/12/31 12:33:53;;;;;;;3.00;2.70;;;;;;;;;;5130181;27;20030;-80
2023/12/31 12:36:19;;;;;;;2.60;2.43;;;;;;;;;;5129931;27;20404;-80
2023/12/31 12:38:48;;;;;;;14.07;1.67;;;;;;;;;;5129842;27;20292;-79
2023/12/31 12:41:32;;;;;;;3.25;3.00;;;;;;;;;;5130946;27;20055;-80
2023/12/31 12:43:58;;;;;;;3.20;3.00;;;;;;;;;;5131102;27;20106;-80
2023/12/31 12:46:27;;;;;;;3.88;3.60;;;;;;;;;;5129937;27;20549;-80
2023/12/31 12:48:53;;;;;;;4.57;4.20;;;;;;;;;;5111169;28;20035;-80
2023/12/31 12:51:19;;;;;;;3.03;2.83;;;;;;;;;;5128473;28;20031;-81
2023/12/31 12:53:45;;;;;;;2.80;2.70;;;;;;;;;;5129590;27;20487;-80
2023/12/31 12:56:11;;;;;;;2.55;2.45;;;;;;;;;;5128434;28;20039;-79
2023/12/31 12:58:37;;;;;;;3.60;3.40;;;;;;;;;;5129866;27;20575;-80
2023/12/31 13:01:04;;;;;;;3.53;2.60;;;;;;;;;;5129911;27;20062;-79
2023/12/31 13:03:30;;;;;;;3.65;3.30;;;;;;;;;;5111754;28;20043;-80
2023/12/31 13:05:58;;;;;;;2.70;2.60;;;;;;;;;;5111188;28;20035;-80
2023/12/31 13:08:25;;;;;;;2.97;2.78;;;;;;;;;;5130326;27;20034;-80
2023/12/31 13:10:51;;;;;;;2.88;2.72;;;;;;;;;;5129450;27;20471;-79
2023/12/31 13:13:17;;;;;;;2.80;2.60;;;;;;;;;;5130075;27;20035;-80
2023/12/31 13:15:42;;;;;;;2.70;2.50;;;;;;;;;;5131286;27;20054;-80
2023/12/31 13:18:08;;;;;;;3.22;3.05;;;;;;;;;;5130527;27;20031;-81
2023/12/31 13:20:35;;;;;;;3.38;3.10;;;;;;;;;;5131348;27;20043;-80
2023/12/31 13:23:01;;;;;;;3.50;3.25;;;;;;;;;;5132708;27;20390;-81
2023/12/31 13:25:27;;;;;;;3.22;3.03;;;;;;;;;;5135300;27;20035;-80
2023/12/31 13:27:53;;;;;;;4.60;4.22;;;;;;;;;;5139549;27;20031;-81
2023/12/31 13:30:19;;;;;;;4.38;4.07;;;;;;;;;;5140574;27;20042;-80
2023/12/31 13:32:45;;;;;;;3.58;3.38;;;;;;;;;;5141934;27;20522;-80
2023/12/31 13:35:11;;;;;;;3.45;3.25;;;;;;;;;;5140980;27;20031;-79
2023/12/31 13:37:37;;;;;;;3.08;2.88;;;;;;;;;;5143255;27;20820;-81
2023/12/31 13:40:04;;;;;;;3.47;3.17;;;;;;;;;;5143901;27;20537;-80
2023/12/31 13:42:33;;;;;;;3.30;3.10;;;;;;;;;;5144284;27;20039;-79
2023/12/31 13:44:59;;;;;;;4.65;4.25;;;;;;;;;;5130397;27;20090;-80
2023/12/31 13:47:25;;;;;;;5.97;3.80;;;;;;;;;;5149434;27;20053;-81
2023/12/31 13:49:50;;;;;;;4.78;4.03;;;;;;;;;;5148641;27;20035;-81
2023/12/31 13:52:16;;;;;;;5.53;5.13;;;;;;;;;;5147474;27;20072;-80
2023/12/31 13:54:42;;;;;;;4.85;4.55;;;;;;;;;;5147855;27;20031;-81
2023/12/31 13:57:08;;;;;;;4.07;3.80;;;;;;;;;;5130915;27;20080;-80
2023/12/31 13:59:34;;;;;;;6.35;4.80;;;;;;;;;;5147412;27;20051;-80
2023/12/31 14:02:00;;;;;;;4.95;4.63;;;;;;;;;;5146637;27;20041;-81
2023/12/31 14:04:27;;;;;;;4.43;4.10;;;;;;;;;;5146305;27;20122;-80
2023/12/31 14:06:53;;;;;;;6.00;5.50;;;;;;;;;;5128851;27;20047;-79
2023/12/31 14:09:19;;;;;;;4.63;4.32;;;;;;;;;;5148365;27;20080;-80
2023/12/31 14:11:45;;;;;;;6.13;5.40;;;;;;;;;;5147919;27;20031;-80
2023/12/31 14:14:10;;;;;;;9.18;6.53;;;;;;;;;;5147310;27;20047;-80
2023/12/31 14:16:38;;;;;;;4.82;4.50;;;;;;;;;;5147522;27;20034;-80
2023/12/31 14:19:05;;;;;;;5.40;5.00;;;;;;;;;;5146198;27;20080;-81
2023/12/31 14:21:31;;;;;;;7.97;7.18;;;;;;;;;;5150166;27;20060;-79
2023/12/31 14:23:57;;;;;;;5.85;5.35;;;;;;;;;;5146439;27;20031;-81
2023/12/31 14:26:23;;;;;;;5.35;4.95;;;;;;;;;;5146430;27;20087;-79
2023/12/31 14:28:50;;;;;;;6.30;5.43;;;;;;;;;;5150088;27;20053;-79
2023/12/31 14:31:18;;;;;;;5.13;4.70;;;;;;;;;;5155313;27;20545;-78
2023/12/31 14:33:44;;;;;;;5.93;5.38;;;;;;;;;;5159367;27;20019;-79